sensor_id;sensor_type;location;lat;lon;timestamp;pressure;altitude;pressure_sealevel;temperature;humidity
75617;BME280;64200;55.426;37.758;2023-02-28T00:03:46;99778.22;;;-6.29;67.35
75617;BME280;64200;55.426;37.758;2023-02-28T00:08:47;99777.41;;;-6.29;67.57
75617;BME280;64200;55.426;37.758;2023-02-28T00:13:47;99760.50;;;-6.39;67.62
75617;BME280;64200;55.426;37.758;2023-02-28T00:18:49;99749.28;;;-6.37;67.72
75617;BME280;64200;55.426;37.758;2023-02-28T00:23:49;99746.56;;;-6.37;67.59
75617;BME280;64200;55.426;37.758;2023-02-28T00:28:52;99741.25;;;-6.49;67.10
75617;BME280;64200;55.426;37.758;2023-02-28T00:33:53;99727.22;;;-6.67;67.71
75617;BME280;64200;55.426;37.758;2023-02-28T00:38:53;99724.31;;;-6.75;68.44
75617;BME280;64200;55.426;37.758;2023-02-28T00:43:54;99735.75;;;-6.81;68.41
75617;BME280;64200;55.426;37.758;2023-02-28T00:48:54;99736.94;;;-6.95;69.17
75617;BME280;64200;55.426;37.758;2023-02-28T00:53:55;99722.19;;;-7.10;70.04
75617;BME280;64200;55.426;37.758;2023-02-28T00:58:55;99720.66;;;-6.95;68.96
75617;BME280;64200;55.426;37.758;2023-02-28T01:03:56;99714.19;;;-7.06;69.93
75617;BME280;64200;55.426;37.758;2023-02-28T01:08:57;99710.31;;;-7.05;69.50
75617;BME280;64200;55.426;37.758;2023-02-28T01:13:58;99691.13;;;-7.12;70.23
75617;BME280;64200;55.426;37.758;2023-02-28T01:18:59;99690.44;;;-7.09;69.97
75617;BME280;64200;55.426;37.758;2023-02-28T01:23:59;99692.63;;;-7.15;70.15
75617;BME280;64200;55.426;37.758;2023-02-28T01:29:00;99686.09;;;-6.98;69.34
75617;BME280;64200;55.426;37.758;2023-02-28T01:34:01;99678.66;;;-7.01;69.19
75617;BME280;64200;55.426;37.758;2023-02-28T01:39:01;99685.84;;;-7.09;69.60
75617;BME280;64200;55.426;37.758;2023-02-28T01:44:05;99661.44;;;-7.09;69.49
75617;BME280;64200;55.426;37.758;2023-02-28T01:49:15;99666.97;;;-6.89;69.44
75617;BME280;64200;55.426;37.758;2023-02-28T01:54:22;99655.19;;;-7.09;69.22
75617;BME280;64200;55.426;37.758;2023-02-28T01:59:28;99652.81;;;-7.27;70.44
75617;BME280;64200;55.426;37.758;2023-02-28T02:04:40;99639.16;;;-7.30;70.26
75617;BME280;64200;55.426;37.758;2023-02-28T02:09:42;99652.00;;;-6.99;69.62
75617;BME280;64200;55.426;37.758;2023-02-28T02:37:04;99596.09;;;-7.03;70.39
75617;BME280;64200;55.426;37.758;2023-02-28T02:42:09;99578.44;;;-7.13;70.13
75617;BME280;64200;55.426;37.758;2023-02-28T02:47:18;99580.44;;;-7.26;70.85
75617;BME280;64200;55.426;37.758;2023-02-28T02:52:25;99568.91;;;-7.23;70.04
75617;BME280;64200;55.426;37.758;2023-02-28T02:57:47;99575.31;;;-7.44;70.88
75617;BME280;64200;55.426;37.758;2023-02-28T03:02:52;99570.88;;;-7.52;71.16
75617;BME280;64200;55.426;37.758;2023-02-28T03:07:54;99558.63;;;-7.46;70.74
75617;BME280;64200;55.426;37.758;2023-02-28T03:13:34;99545.63;;;-7.40;69.93
75617;BME280;64200;55.426;37.758;2023-02-28T03:29:15;99526.91;;;-7.45;70.31
75617;BME280;64200;55.426;37.758;2023-02-28T03:34:25;99505.16;;;-7.49;70.09
75617;BME280;64200;55.426;37.758;2023-02-28T03:39:37;99491.69;;;-7.45;70.09
75617;BME280;64200;55.426;37.758;2023-02-28T03:44:48;99487.13;;;-7.57;69.91
75617;BME280;64200;55.426;37.758;2023-02-28T03:50:02;99475.78;;;-7.47;69.72
75617;BME280;64200;55.426;37.758;2023-02-28T03:55:09;99462.72;;;-7.73;71.11
75617;BME280;64200;55.426;37.758;2023-02-28T04:00:26;99463.19;;;-7.71;70.89
75617;BME280;64200;55.426;37.758;2023-02-28T04:05:29;99463.34;;;-7.80;71.13
75617;BME280;64200;55.426;37.758;2023-02-28T04:10:30;99445.78;;;-7.86;71.04
75617;BME280;64200;55.426;37.758;2023-02-28T04:15:30;99442.66;;;-7.72;71.27
75617;BME280;64200;55.426;37.758;2023-02-28T04:20:32;99430.50;;;-7.78;71.20
75617;BME280;64200;55.426;37.758;2023-02-28T04:25:32;99419.41;;;-7.73;70.97
75617;BME280;64200;55.426;37.758;2023-02-28T04:30:33;99421.69;;;-7.75;70.73
75617;BME280;64200;55.426;37.758;2023-02-28T04:35:33;99403.06;;;-7.77;70.75
75617;BME280;64200;55.426;37.758;2023-02-28T04:40:35;99403.50;;;-7.74;70.81
75617;BME280;64200;55.426;37.758;2023-02-28T04:45:35;99384.09;;;-7.92;70.86
75617;BME280;64200;55.426;37.758;2023-02-28T04:50:36;99394.97;;;-7.61;70.80
75617;BME280;64200;55.426;37.758;2023-02-28T04:55:37;99367.25;;;-7.54;70.27
75617;BME280;64200;55.426;37.758;2023-02-28T05:00:40;99381.56;;;-7.37;69.34
75617;BME280;64200;55.426;37.758;2023-02-28T05:05:40;99368.72;;;-7.41;69.71
75617;BME280;64200;55.426;37.758;2023-02-28T05:10:41;99362.59;;;-7.37;69.33
75617;BME280;64200;55.426;37.758;2023-02-28T05:15:41;99355.16;;;-7.25;68.49
75617;BME280;64200;55.426;37.758;2023-02-28T05:20:42;99327.88;;;-7.32;68.30
75617;BME280;64200;55.426;37.758;2023-02-28T05:25:43;99335.88;;;-7.19;68.25
75617;BME280;64200;55.426;37.758;2023-02-28T05:30:43;99323.50;;;-7.20;67.58
75617;BME280;64200;55.426;37.758;2023-02-28T05:35:43;99322.06;;;-7.14;67.39
75617;BME280;64200;55.426;37.758;2023-02-28T05:40:44;99300.41;;;-6.95;66.76
75617;BME280;64200;55.426;37.758;2023-02-28T05:45:45;99298.69;;;-6.83;66.50
75617;BME280;64200;55.426;37.758;2023-02-28T05:50:45;99297.41;;;-6.70;65.70
75617;BME280;64200;55.426;37.758;2023-02-28T05:55:46;99288.50;;;-6.47;66.06
75617;BME280;64200;55.426;37.758;2023-02-28T06:00:47;99261.16;;;-6.39;64.71
75617;BME280;64200;55.426;37.758;2023-02-28T06:05:48;99248.97;;;-6.02;63.77
75617;BME280;64200;55.426;37.758;2023-02-28T06:10:48;99257.34;;;-5.57;62.13
75617;BME280;64200;55.426;37.758;2023-02-28T06:15:49;99227.13;;;-5.25;60.79
75617;BME280;64200;55.426;37.758;2023-02-28T06:20:53;99228.56;;;-5.32;60.39
75617;BME280;64200;55.426;37.758;2023-02-28T06:25:54;99221.88;;;-4.73;59.23
75617;BME280;64200;55.426;37.758;2023-02-28T06:30:58;99209.34;;;-4.37;58.26
75617;BME280;64200;55.426;37.758;2023-02-28T06:35:58;99204.09;;;-4.19;56.69
75617;BME280;64200;55.426;37.758;2023-02-28T06:41:00;99181.28;;;-3.96;56.51
75617;BME280;64200;55.426;37.758;2023-02-28T06:46:02;99158.09;;;-3.65;54.50
75617;BME280;64200;55.426;37.758;2023-02-28T06:51:12;99146.63;;;-3.11;52.72
75617;BME280;64200;55.426;37.758;2023-02-28T06:56:15;99149.03;;;-2.81;51.18
75617;BME280;64200;55.426;37.758;2023-02-28T07:01:17;99155.28;;;-2.84;50.38
75617;BME280;64200;55.426;37.758;2023-02-28T07:06:19;99133.44;;;-2.16;50.40
75617;BME280;64200;55.426;37.758;2023-02-28T07:11:21;99131.44;;;-1.97;49.24
75617;BME280;64200;55.426;37.758;2023-02-28T07:16:25;99125.13;;;-1.72;48.96
75617;BME280;64200;55.426;37.758;2023-02-28T07:21:26;99096.25;;;-1.77;47.30
75617;BME280;64200;55.426;37.758;2023-02-28T07:26:27;99082.44;;;-1.48;47.75
75617;BME280;64200;55.426;37.758;2023-02-28T07:31:27;99079.66;;;-1.34;47.16
75617;BME280;64200;55.426;37.758;2023-02-28T07:36:28;99058.41;;;-0.17;47.24
75617;BME280;64200;55.426;37.758;2023-02-28T07:41:36;99055.84;;;0.03;44.44
75617;BME280;64200;55.426;37.758;2023-02-28T07:46:43;99038.84;;;-0.20;44.62
75617;BME280;64200;55.426;37.758;2023-02-28T07:51:43;99011.75;;;-0.48;45.25
75617;BME280;64200;55.426;37.758;2023-02-28T07:56:44;99011.31;;;-0.89;45.82
75617;BME280;64200;55.426;37.758;2023-02-28T08:01:45;99021.66;;;-0.62;47.40
75617;BME280;64200;55.426;37.758;2023-02-28T08:06:46;98998.38;;;-0.43;47.19
75617;BME280;64200;55.426;37.758;2023-02-28T08:11:46;98995.94;;;-0.37;46.50
75617;BME280;64200;55.426;37.758;2023-02-28T08:16:47;99001.53;;;-0.10;46.16
75617;BME280;64200;55.426;37.758;2023-02-28T08:21:47;99005.38;;;0.85;45.35
75617;BME280;64200;55.426;37.758;2023-02-28T08:26:48;99003.38;;;1.13;45.00
75617;BME280;64200;55.426;37.758;2023-02-28T08:31:49;98984.31;;;0.79;45.01
75617;BME280;64200;55.426;37.758;2023-02-28T08:36:49;98970.16;;;0.80;45.47
75617;BME280;64200;55.426;37.758;2023-02-28T08:41:50;98966.84;;;2.00;44.83
75617;BME280;64200;55.426;37.758;2023-02-28T08:46:50;98953.13;;;3.03;43.23
75617;BME280;64200;55.426;37.758;2023-02-28T08:51:51;98941.38;;;3.61;41.59
75617;BME280;64200;55.426;37.758;2023-02-28T08:56:52;98925.94;;;2.72;41.52
75617;BME280;64200;55.426;37.758;2023-02-28T09:01:52;98928.34;;;2.86;42.50
75617;BME280;64200;55.426;37.758;2023-02-28T09:06:53;98903.19;;;3.01;41.90
75617;BME280;64200;55.426;37.758;2023-02-28T09:11:56;98900.91;;;4.38;40.62
75617;BME280;64200;55.426;37.758;2023-02-28T09:16:56;98910.16;;;5.18;39.34
75617;BME280;64200;55.426;37.758;2023-02-28T09:21:58;98905.69;;;3.11;39.07
75617;BME280;64200;55.426;37.758;2023-02-28T09:26:58;98930.31;;;1.60;43.65
75617;BME280;64200;55.426;37.758;2023-02-28T09:31:59;98920.84;;;1.20;44.72
75617;BME280;64200;55.426;37.758;2023-02-28T09:37:00;98893.41;;;0.73;46.07
75617;BME280;64200;55.426;37.758;2023-02-28T09:42:02;98884.50;;;0.42;47.31
75617;BME280;64200;55.426;37.758;2023-02-28T09:47:13;98873.69;;;0.31;48.08
75617;BME280;64200;55.426;37.758;2023-02-28T09:52:20;98854.19;;;-0.02;49.72
75617;BME280;64200;55.426;37.758;2023-02-28T09:57:51;98844.41;;;0.24;49.35
75617;BME280;64200;55.426;37.758;2023-02-28T10:08:07;98854.03;;;0.09;50.98
75617;BME280;64200;55.426;37.758;2023-02-28T10:18:41;98835.09;;;0.18;52.10
75617;BME280;64200;55.426;37.758;2023-02-28T10:23:43;98837.00;;;-0.06;53.52
75617;BME280;64200;55.426;37.758;2023-02-28T10:28:45;98804.53;;;-0.08;54.11
75617;BME280;64200;55.426;37.758;2023-02-28T10:33:46;98814.94;;;0.05;55.08
75617;BME280;64200;55.426;37.758;2023-02-28T10:38:48;98809.03;;;-0.21;55.87
75617;BME280;64200;55.426;37.758;2023-02-28T10:43:48;98788.34;;;-0.26;56.40
75617;BME280;64200;55.426;37.758;2023-02-28T10:49:14;98782.75;;;-0.46;57.40
75617;BME280;64200;55.426;37.758;2023-02-28T10:54:18;98774.91;;;-0.44;57.38
75617;BME280;64200;55.426;37.758;2023-02-28T10:59:30;98776.16;;;-0.48;57.73
75617;BME280;64200;55.426;37.758;2023-02-28T11:04:34;98775.41;;;-0.52;58.57
75617;BME280;64200;55.426;37.758;2023-02-28T11:09:54;98772.66;;;-0.52;57.72
75617;BME280;64200;55.426;37.758;2023-02-28T11:15:02;98773.25;;;-0.68;59.14
75617;BME280;64200;55.426;37.758;2023-02-28T11:20:06;98766.28;;;-0.73;58.74
75617;BME280;64200;55.426;37.758;2023-02-28T11:25:26;98749.25;;;-0.88;59.59
75617;BME280;64200;55.426;37.758;2023-02-28T11:35:33;98740.88;;;-1.04;59.93
75617;BME280;64200;55.426;37.758;2023-02-28T12:13:29;98727.53;;;-1.02;62.98
75617;BME280;64200;55.426;37.758;2023-02-28T12:18:53;98702.19;;;-1.07;63.23
75617;BME280;64200;55.426;37.758;2023-02-28T12:40:13;98689.84;;;-1.22;65.28
75617;BME280;64200;55.426;37.758;2023-02-28T12:50:22;98671.53;;;-1.25;64.81
75617;BME280;64200;55.426;37.758;2023-02-28T12:55:42;98667.22;;;-1.22;64.55
75617;BME280;64200;55.426;37.758;2023-02-28T13:01:10;98669.38;;;-1.10;64.38
75617;BME280;64200;55.426;37.758;2023-02-28T13:11:39;98646.56;;;-1.27;65.60
75617;BME280;64200;55.426;37.758;2023-02-28T13:22:18;98650.88;;;-1.30;66.97
75617;BME280;64200;55.426;37.758;2023-02-28T13:27:33;98613.44;;;-1.36;66.48
75617;BME280;64200;55.426;37.758;2023-02-28T13:32:35;98611.97;;;-1.45;67.96
75617;BME280;64200;55.426;37.758;2023-02-28T13:37:47;98603.41;;;-1.47;68.73
75617;BME280;64200;55.426;37.758;2023-02-28T13:42:50;98609.56;;;-1.39;68.30
75617;BME280;64200;55.426;37.758;2023-02-28T14:13:59;98554.38;;;-1.34;67.99
75617;BME280;64200;55.426;37.758;2023-02-28T14:19:03;98571.69;;;-1.13;67.56
75617;BME280;64200;55.426;37.758;2023-02-28T14:30:03;98560.16;;;-1.01;67.93
75617;BME280;64200;55.426;37.758;2023-02-28T14:40:45;98553.25;;;-1.09;68.57
75617;BME280;64200;55.426;37.758;2023-02-28T14:45:54;98535.53;;;-1.01;68.84
75617;BME280;64200;55.426;37.758;2023-02-28T14:50:59;98536.25;;;-0.97;68.63
75617;BME280;64200;55.426;37.758;2023-02-28T14:56:01;98519.63;;;-1.10;69.76
75617;BME280;64200;55.426;37.758;2023-02-28T15:01:03;98527.31;;;-1.01;70.05
75617;BME280;64200;55.426;37.758;2023-02-28T15:06:16;98524.97;;;-0.99;69.97
75617;BME280;64200;55.426;37.758;2023-02-28T15:11:21;98502.44;;;-1.10;71.43
75617;BME280;64200;55.426;37.758;2023-02-28T15:16:43;98505.06;;;-1.03;71.38
75617;BME280;64200;55.426;37.758;2023-02-28T15:21:49;98509.72;;;-1.00;71.57
75617;BME280;64200;55.426;37.758;2023-02-28T15:26:55;98487.41;;;-0.98;70.97
75617;BME280;64200;55.426;37.758;2023-02-28T15:42:30;98489.00;;;-1.01;72.19
75617;BME280;64200;55.426;37.758;2023-02-28T15:47:32;98474.56;;;-1.01;72.41
75617;BME280;64200;55.426;37.758;2023-02-28T15:57:39;98484.00;;;-0.82;71.61
75617;BME280;64200;55.426;37.758;2023-02-28T16:02:41;98460.09;;;-0.78;71.07
75617;BME280;64200;55.426;37.758;2023-02-28T16:07:42;98474.97;;;-0.79;71.58
75617;BME280;64200;55.426;37.758;2023-02-28T16:12:44;98459.50;;;-0.90;72.66
75617;BME280;64200;55.426;37.758;2023-02-28T16:17:45;98458.97;;;-0.81;72.42
75617;BME280;64200;55.426;37.758;2023-02-28T16:22:47;98482.13;;;-0.85;73.22
75617;BME280;64200;55.426;37.758;2023-02-28T16:27:51;98460.13;;;-0.82;71.77
75617;BME280;64200;55.426;37.758;2023-02-28T16:32:58;98462.84;;;-0.78;72.49
75617;BME280;64200;55.426;37.758;2023-02-28T16:38:00;98449.78;;;-0.71;72.67
75617;BME280;64200;55.426;37.758;2023-02-28T16:43:10;98452.22;;;-0.76;72.85
75617;BME280;64200;55.426;37.758;2023-02-28T16:48:15;98447.34;;;-0.65;72.78
75617;BME280;64200;55.426;37.758;2023-02-28T16:53:17;98447.25;;;-0.61;72.69
75617;BME280;64200;55.426;37.758;2023-02-28T16:58:18;98438.16;;;-0.55;72.37
75617;BME280;64200;55.426;37.758;2023-02-28T17:03:27;98433.50;;;-0.58;72.48
75617;BME280;64200;55.426;37.758;2023-02-28T17:08:29;98430.41;;;-0.60;71.95
75617;BME280;64200;55.426;37.758;2023-02-28T17:13:32;98412.84;;;-0.62;72.55
75617;BME280;64200;55.426;37.758;2023-02-28T17:18:34;98415.03;;;-0.54;72.50
75617;BME280;64200;55.426;37.758;2023-02-28T17:23:35;98404.28;;;-0.44;72.35
75617;BME280;64200;55.426;37.758;2023-02-28T17:28:37;98410.63;;;-0.47;72.43
75617;BME280;64200;55.426;37.758;2023-02-28T17:33:38;98409.22;;;-0.36;72.31
75617;BME280;64200;55.426;37.758;2023-02-28T17:38:39;98396.97;;;-0.31;72.03
75617;BME280;64200;55.426;37.758;2023-02-28T17:43:40;98400.25;;;-0.20;71.88
75617;BME280;64200;55.426;37.758;2023-02-28T17:48:41;98387.91;;;-0.28;71.90
75617;BME280;64200;55.426;37.758;2023-02-28T17:53:42;98391.41;;;-0.27;71.59
75617;BME280;64200;55.426;37.758;2023-02-28T17:58:44;98397.22;;;-0.25;71.79
75617;BME280;64200;55.426;37.758;2023-02-28T18:03:45;98378.47;;;-0.27;71.89
75617;BME280;64200;55.426;37.758;2023-02-28T18:08:47;98401.75;;;-0.35;72.38
75617;BME280;64200;55.426;37.758;2023-02-28T18:13:51;98408.19;;;-0.25;71.89
75617;BME280;64200;55.426;37.758;2023-02-28T18:18:52;98414.59;;;-0.32;71.93
75617;BME280;64200;55.426;37.758;2023-02-28T18:23:53;98404.41;;;-0.31;71.77
75617;BME280;64200;55.426;37.758;2023-02-28T18:28:53;98412.44;;;-0.41;71.24
75617;BME280;64200;55.426;37.758;2023-02-28T18:33:54;98418.19;;;-0.35;71.11
75617;BME280;64200;55.426;37.758;2023-02-28T18:38:54;98409.41;;;-0.26;71.26
75617;BME280;64200;55.426;37.758;2023-02-28T18:43:55;98401.47;;;-0.21;70.25
75617;BME280;64200;55.426;37.758;2023-02-28T18:48:56;98407.56;;;-0.13;69.92
75617;BME280;64200;55.426;37.758;2023-02-28T18:53:58;98442.84;;;-0.15;69.31
75617;BME280;64200;55.426;37.758;2023-02-28T18:58:58;98444.88;;;-0.39;67.67
75617;BME280;64200;55.426;37.758;2023-02-28T19:04:00;98459.41;;;-0.62;66.32
75617;BME280;64200;55.426;37.758;2023-02-28T19:09:01;98454.03;;;-0.90;64.18
75617;BME280;64200;55.426;37.758;2023-02-28T19:14:03;98454.09;;;-0.93;63.56
75617;BME280;64200;55.426;37.758;2023-02-28T19:19:03;98459.19;;;-0.95;62.90
75617;BME280;64200;55.426;37.758;2023-02-28T19:24:04;98464.47;;;-0.84;62.14
75617;BME280;64200;55.426;37.758;2023-02-28T19:29:05;98435.88;;;-1.03;61.37
75617;BME280;64200;55.426;37.758;2023-02-28T19:34:06;98450.16;;;-0.92;61.12
75617;BME280;64200;55.426;37.758;2023-02-28T19:39:07;98446.31;;;-0.95;60.33
75617;BME280;64200;55.426;37.758;2023-02-28T19:44:07;98466.34;;;-0.78;60.21
75617;BME280;64200;55.426;37.758;2023-02-28T19:49:10;98454.88;;;-0.73;58.61
75617;BME280;64200;55.426;37.758;2023-02-28T19:54:12;98434.72;;;-0.82;57.92
75617;BME280;64200;55.426;37.758;2023-02-28T19:59:14;98435.72;;;-0.73;57.20
75617;BME280;64200;55.426;37.758;2023-02-28T20:04:17;98441.91;;;-0.68;56.48
75617;BME280;64200;55.426;37.758;2023-02-28T20:09:18;98439.59;;;-0.70;57.81
75617;BME280;64200;55.426;37.758;2023-02-28T20:14:18;98432.28;;;-0.77;57.19
75617;BME280;64200;55.426;37.758;2023-02-28T20:19:19;98432.22;;;-0.73;57.58
75617;BME280;64200;55.426;37.758;2023-02-28T20:24:20;98439.00;;;-0.58;57.67
75617;BME280;64200;55.426;37.758;2023-02-28T20:29:25;98434.41;;;-0.64;57.88
75617;BME280;64200;55.426;37.758;2023-02-28T20:34:25;98430.75;;;-0.78;57.29
75617;BME280;64200;55.426;37.758;2023-02-28T20:39:26;98419.88;;;-0.81;55.69
75617;BME280;64200;55.426;37.758;2023-02-28T20:44:27;98422.31;;;-0.87;55.45
75617;BME280;64200;55.426;37.758;2023-02-28T20:49:27;98410.63;;;-0.91;54.01
75617;BME280;64200;55.426;37.758;2023-02-28T20:54:28;98426.72;;;-0.93;52.55
75617;BME280;64200;55.426;37.758;2023-02-28T20:59:29;98431.06;;;-0.96;52.39
75617;BME280;64200;55.426;37.758;2023-02-28T21:04:30;98440.22;;;-1.06;51.07
75617;BME280;64200;55.426;37.758;2023-02-28T21:09:30;98434.34;;;-1.04;49.58
75617;BME280;64200;55.426;37.758;2023-02-28T21:14:31;98434.53;;;-1.15;50.26
75617;BME280;64200;55.426;37.758;2023-02-28T21:19:31;98428.44;;;-1.27;49.66
75617;BME280;64200;55.426;37.758;2023-02-28T21:24:32;98432.78;;;-1.29;48.56
75617;BME280;64200;55.426;37.758;2023-02-28T21:29:33;98428.25;;;-1.39;47.84
75617;BME280;64200;55.426;37.758;2023-02-28T21:34:33;98425.09;;;-1.38;47.88
75617;BME280;64200;55.426;37.758;2023-02-28T21:39:34;98451.53;;;-1.55;47.53
75617;BME280;64200;55.426;37.758;2023-02-28T21:44:35;98470.03;;;-1.63;47.90
75617;BME280;64200;55.426;37.758;2023-02-28T21:49:35;98463.97;;;-1.78;47.71
75617;BME280;64200;55.426;37.758;2023-02-28T21:54:38;98464.00;;;-1.81;47.62
75617;BME280;64200;55.426;37.758;2023-02-28T21:59:38;98462.59;;;-1.89;47.07
75617;BME280;64200;55.426;37.758;2023-02-28T22:04:39;98450.94;;;-1.97;46.97
75617;BME280;64200;55.426;37.758;2023-02-28T22:09:39;98462.78;;;-2.07;47.46
75617;BME280;64200;55.426;37.758;2023-02-28T22:14:40;98470.63;;;-2.09;48.11
75617;BME280;64200;55.426;37.758;2023-02-28T22:19:41;98468.38;;;-2.15;47.80
75617;BME280;64200;55.426;37.758;2023-02-28T22:24:42;98456.03;;;-2.30;47.98
75617;BME280;64200;55.426;37.758;2023-02-28T22:29:42;98465.88;;;-2.36;47.77
75617;BME280;64200;55.426;37.758;2023-02-28T22:34:43;98472.28;;;-2.50;47.48
75617;BME280;64200;55.426;37.758;2023-02-28T22:39:43;98468.59;;;-2.71;48.20
75617;BME280;64200;55.426;37.758;2023-02-28T22:44:44;98472.44;;;-2.68;48.09
75617;BME280;64200;55.426;37.758;2023-02-28T22:49:45;98458.94;;;-2.83;47.63
75617;BME280;64200;55.426;37.758;2023-02-28T22:54:50;98475.63;;;-2.73;48.20
75617;BME280;64200;55.426;37.758;2023-02-28T22:59:50;98480.38;;;-2.81;48.17
75617;BME280;64200;55.426;37.758;2023-02-28T23:04:53;98474.97;;;-2.88;48.75
75617;BME280;64200;55.426;37.758;2023-02-28T23:09:54;98480.53;;;-2.99;48.49
75617;BME280;64200;55.426;37.758;2023-02-28T23:14:54;98478.63;;;-3.06;48.40
75617;BME280;64200;55.426;37.758;2023-02-28T23:19:55;98469.69;;;-3.06;48.31
75617;BME280;64200;55.426;37.758;2023-02-28T23:24:55;98475.59;;;-3.15;48.98
75617;BME280;64200;55.426;37.758;2023-02-28T23:29:56;98469.41;;;-3.19;49.13
75617;BME280;64200;55.426;37.758;2023-02-28T23:34:58;98471.00;;;-3.25;49.41
75617;BME280;64200;55.426;37.758;2023-02-28T23:39:59;98469.44;;;-3.26;49.42
75617;BME280;64200;55.426;37.758;2023-02-28T23:45:00;98463.94;;;-3.19;48.84
75617;BME280;64200;55.426;37.758;2023-02-28T23:50:01;98455.44;;;-3.28;48.92
75617;BME280;64200;55.426;37.758;2023-02-28T23:55:02;98463.72;;;-3.43;48.92
